Time;durP1;ratioP1;P1;durP2;ratioP2;P2;SDS_P1;SDS_P2;PMS_P1;PMS_P2;Temp;Humidity;BMP_temperature;BMP_pressure;BME280_temperature;BME280_humidity;BME280_pressure;Samples;Min_cycle;Max_cycle;Signal;HPM_P1;HPM_P2
2022/07/06 00:02:18;;;;;;;0.00;0.00;;;;;;;;;;5112155;28;20104;-80
2022/07/06 00:04:44;;;;;;;0.00;0.00;;;;;;;;;;5112119;28;20051;-80
2022/07/06 00:07:10;;;;;;;0.00;0.00;;;;;;;;;;5111882;28;20096;-80
2022/07/06 00:09:36;;;;;;;0.00;0.00;;;;;;;;;;5111942;28;20462;-80
2022/07/06 00:12:02;;;;;;;0.00;0.00;;;;;;;;;;5113219;28;20039;-79
2022/07/06 00:14:28;;;;;;;0.00;0.00;;;;;;;;;;5094918;28;20047;-79
2022/07/06 00:16:54;;;;;;;0.00;0.00;;;;;;;;;;5111942;28;20048;-79
2022/07/06 00:19:20;;;;;;;0.00;0.00;;;;;;;;;;5112310;28;20118;-80
2022/07/06 00:21:46;;;;;;;0.00;0.00;;;;;;;;;;5111536;28;20075;-80
2022/07/06 00:24:12;;;;;;;0.00;0.00;;;;;;;;;;5111821;28;20043;-80
2022/07/06 00:26:38;;;;;;;0.00;0.00;;;;;;;;;;5111823;28;20036;-80
2022/07/06 00:29:04;;;;;;;0.00;0.00;;;;;;;;;;5113156;28;20490;-80
2022/07/06 00:31:30;;;;;;;0.00;0.00;;;;;;;;;;5111640;28;20039;-80
2022/07/06 00:33:56;;;;;;;0.00;0.00;;;;;;;;;;5111971;28;20077;-80
2022/07/06 00:36:22;;;;;;;0.00;0.00;;;;;;;;;;5111506;28;20053;-80
2022/07/06 00:38:48;;;;;;;0.00;0.00;;;;;;;;;;5111688;28;20046;-80
2022/07/06 00:41:14;;;;;;;0.00;0.00;;;;;;;;;;5112928;28;20075;-80
2022/07/06 00:43:47;;;;;;;0.00;0.00;;;;;;;;;;5098454;28;20048;-80
2022/07/06 00:46:13;;;;;;;0.00;0.00;;;;;;;;;;5098382;28;20039;-80
2022/07/06 00:48:39;;;;;;;0.00;0.00;;;;;;;;;;5115752;28;20100;-80
2022/07/06 00:51:05;;;;;;;0.00;0.00;;;;;;;;;;5116839;28;20096;-80
2022/07/06 00:53:31;;;;;;;0.00;0.00;;;;;;;;;;5116897;28;20371;-80
2022/07/06 00:55:57;;;;;;;0.00;0.00;;;;;;;;;;5115424;28;20501;-80
2022/07/06 00:58:23;;;;;;;0.00;0.00;;;;;;;;;;5098361;28;20047;-80
2022/07/06 01:00:49;;;;;;;0.00;0.00;;;;;;;;;;5115118;28;20039;-80
2022/07/06 01:03:15;;;;;;;0.00;0.00;;;;;;;;;;5115199;28;20445;-80
2022/07/06 01:05:41;;;;;;;0.00;0.00;;;;;;;;;;5114966;28;20123;-79
2022/07/06 01:08:07;;;;;;;0.00;0.00;;;;;;;;;;5116439;28;20110;-80
2022/07/06 01:10:33;;;;;;;0.00;0.00;;;;;;;;;;5097953;28;20040;-80
2022/07/06 01:12:59;;;;;;;0.00;0.00;;;;;;;;;;5115084;28;20054;-80
2022/07/06 01:15:25;;;;;;;0.00;0.00;;;;;;;;;;5114905;28;20498;-80
2022/07/06 01:17:52;;;;;;;0.00;0.00;;;;;;;;;;5114817;28;20084;-80
2022/07/06 01:20:21;;;;;;;0.00;0.00;;;;;;;;;;5115045;28;20130;-80
2022/07/06 01:22:49;;;;;;;0.00;0.00;;;;;;;;;;5114559;28;20047;-80
2022/07/06 01:25:15;;;;;;;0.00;0.00;;;;;;;;;;5114738;28;20174;-80
2022/07/06 01:27:42;;;;;;;0.00;0.00;;;;;;;;;;5115836;28;20040;-80
2022/07/06 01:30:15;;;;;;;0.00;0.00;;;;;;;;;;5114746;28;20047;-80
2022/07/06 01:32:41;;;;;;;0.00;0.00;;;;;;;;;;5114794;28;20039;-80
2022/07/06 01:35:08;;;;;;;0.00;0.00;;;;;;;;;;5114803;28;20506;-80
2022/07/06 01:37:34;;;;;;;0.00;0.00;;;;;;;;;;5114365;28;20126;-80
2022/07/06 01:40:01;;;;;;;0.00;0.00;;;;;;;;;;5114544;28;20089;-80
2022/07/06 01:42:28;;;;;;;0.00;0.00;;;;;;;;;;5115328;28;20052;-80
2022/07/06 01:44:54;;;;;;;0.00;0.00;;;;;;;;;;5114639;28;20387;-80
2022/07/06 01:47:20;;;;;;;0.00;0.00;;;;;;;;;;5114182;28;20055;-80
2022/07/06 01:49:46;;;;;;;0.00;0.00;;;;;;;;;;5114340;28;20046;-80
2022/07/06 01:52:12;;;;;;;0.00;0.00;;;;;;;;;;5113856;28;20047;-80
2022/07/06 01:54:38;;;;;;;0.00;0.00;;;;;;;;;;5114125;28;20398;-80
2022/07/06 01:57:05;;;;;;;0.00;0.00;;;;;;;;;;5115328;28;20398;-80
2022/07/06 01:59:31;;;;;;;0.00;0.00;;;;;;;;;;5114358;28;20436;-80
2022/07/06 02:01:57;;;;;;;0.00;0.00;;;;;;;;;;5113696;28;20036;-80
2022/07/06 02:04:23;;;;;;;0.00;0.00;;;;;;;;;;5113921;28;20035;-80
2022/07/06 02:06:49;;;;;;;0.00;0.00;;;;;;;;;;5113837;28;20043;-80
2022/07/06 02:09:16;;;;;;;0.00;0.00;;;;;;;;;;5115230;28;20054;-80
2022/07/06 02:11:42;;;;;;;0.00;0.00;;;;;;;;;;5113979;28;20043;-80
2022/07/06 02:14:08;;;;;;;0.00;0.00;;;;;;;;;;5097068;28;20340;-80
2022/07/06 02:16:34;;;;;;;0.00;0.00;;;;;;;;;;5113766;28;20553;-80
2022/07/06 02:19:00;;;;;;;0.00;0.00;;;;;;;;;;5115257;28;20067;-80
2022/07/06 02:21:26;;;;;;;0.00;0.00;;;;;;;;;;5113502;28;20517;-80
2022/07/06 02:23:52;;;;;;;0.00;0.00;;;;;;;;;;5113464;28;20463;-80
2022/07/06 02:26:18;;;;;;;0.00;0.00;;;;;;;;;;5113662;28;20040;-80
2022/07/06 02:28:46;;;;;;;0.00;0.00;;;;;;;;;;5113628;28;20113;-80
2022/07/06 02:31:13;;;;;;;0.00;0.00;;;;;;;;;;5113462;28;20043;-79
2022/07/06 02:33:39;;;;;;;0.00;0.00;;;;;;;;;;5113618;28;20486;-80
2022/07/06 02:36:05;;;;;;;0.00;0.00;;;;;;;;;;5113425;28;20055;-80
2022/07/06 02:38:31;;;;;;;0.00;0.00;;;;;;;;;;5113296;28;20051;-80
2022/07/06 02:40:57;;;;;;;0.00;0.00;;;;;;;;;;5113085;28;20062;-80
2022/07/06 02:43:23;;;;;;;0.00;0.00;;;;;;;;;;5113123;28;20052;-79
2022/07/06 02:45:49;;;;;;;0.00;0.00;;;;;;;;;;5114426;28;20454;-80
2022/07/06 02:48:15;;;;;;;0.00;0.00;;;;;;;;;;5113287;28;20043;-80
2022/07/06 02:50:41;;;;;;;0.00;0.00;;;;;;;;;;5113489;28;20040;-80
2022/07/06 02:53:07;;;;;;;0.00;0.00;;;;;;;;;;5096080;28;20043;-80
2022/07/06 02:55:33;;;;;;;0.00;0.00;;;;;;;;;;5114383;28;20105;-80
2022/07/06 02:57:59;;;;;;;0.00;0.00;;;;;;;;;;5112813;28;20078;-79
2022/07/06 03:00:25;;;;;;;0.00;0.00;;;;;;;;;;5114278;28;20067;-80
2022/07/06 03:02:51;;;;;;;0.00;0.00;;;;;;;;;;5112304;28;20497;-80
2022/07/06 03:05:17;;;;;;;0.00;0.00;;;;;;;;;;5112638;28;20047;-80
2022/07/06 03:07:43;;;;;;;0.00;0.00;;;;;;;;;;5112432;28;20494;-80
2022/07/06 03:10:09;;;;;;;0.00;0.00;;;;;;;;;;5114149;28;20111;-80
2022/07/06 03:12:35;;;;;;;0.00;0.00;;;;;;;;;;5112508;28;20043;-80
2022/07/06 03:15:01;;;;;;;0.00;0.00;;;;;;;;;;5095854;28;20069;-80
2022/07/06 03:17:27;;;;;;;0.00;0.00;;;;;;;;;;5112487;28;20044;-80
2022/07/06 03:19:53;;;;;;;0.00;0.00;;;;;;;;;;5114089;28;20039;-80
2022/07/06 03:22:19;;;;;;;0.00;0.00;;;;;;;;;;5113753;28;20074;-80
2022/07/06 03:24:45;;;;;;;0.00;0.00;;;;;;;;;;5113811;28;20035;-80
2022/07/06 03:27:11;;;;;;;0.00;0.00;;;;;;;;;;5112725;28;20048;-80
2022/07/06 03:29:37;;;;;;;0.00;0.00;;;;;;;;;;5112371;28;20121;-80
2022/07/06 03:32:03;;;;;;;0.00;0.00;;;;;;;;;;5112233;28;20040;-80
2022/07/06 03:34:29;;;;;;;0.00;0.00;;;;;;;;;;5112298;28;20047;-80
2022/07/06 03:36:55;;;;;;;0.00;0.00;;;;;;;;;;5112260;28;20036;-79
2022/07/06 03:39:21;;;;;;;0.00;0.00;;;;;;;;;;5112355;28;20032;-79
2022/07/06 03:41:47;;;;;;;0.00;0.00;;;;;;;;;;5112130;28;20051;-79
2022/07/06 03:44:13;;;;;;;0.00;0.00;;;;;;;;;;5113096;28;20065;-79
2022/07/06 03:46:39;;;;;;;0.00;0.00;;;;;;;;;;5113530;28;20031;-80
2022/07/06 03:49:05;;;;;;;0.00;0.00;;;;;;;;;;5112243;28;20046;-80
2022/07/06 03:51:31;;;;;;;0.00;0.00;;;;;;;;;;5112213;28;20117;-80
2022/07/06 03:53:57;;;;;;;0.00;0.00;;;;;;;;;;5111927;28;20039;-79
2022/07/06 03:56:29;;;;;;;0.00;0.00;;;;;;;;;;5112688;28;20055;-79
2022/07/06 03:58:55;;;;;;;0.00;0.00;;;;;;;;;;5111945;28;20167;-79
2022/07/06 04:01:21;;;;;;;0.00;0.00;;;;;;;;;;5095050;28;20048;-79
2022/07/06 04:03:47;;;;;;;0.00;0.00;;;;;;;;;;5111778;28;20383;-79
2022/07/06 04:06:14;;;;;;;0.00;0.00;;;;;;;;;;5113198;28;20475;-79
2022/07/06 04:08:40;;;;;;;0.00;0.00;;;;;;;;;;5111764;28;20040;-79
2022/07/06 04:11:06;;;;;;;0.00;0.00;;;;;;;;;;5111940;28;20036;-79
2022/07/06 04:13:33;;;;;;;0.00;0.00;;;;;;;;;;5111721;28;20392;-80
2022/07/06 04:15:59;;;;;;;0.00;0.00;;;;;;;;;;5114861;28;20126;-80
2022/07/06 04:18:25;;;;;;;0.00;0.00;;;;;;;;;;5115929;28;20048;-80
2022/07/06 04:20:51;;;;;;;0.00;0.00;;;;;;;;;;5116249;28;20051;-80
2022/07/06 04:23:16;;;;;;;0.00;0.00;;;;;;;;;;5115912;28;20044;-80
2022/07/06 04:25:43;;;;;;;0.00;0.00;;;;;;;;;;5115786;28;20051;-80
2022/07/06 04:28:09;;;;;;;0.00;0.00;;;;;;;;;;5098686;28;20119;-80
2022/07/06 04:30:35;;;;;;;0.00;0.00;;;;;;;;;;5116102;28;20075;-80
2022/07/06 04:33:01;;;;;;;0.00;0.00;;;;;;;;;;5115795;28;20050;-80
2022/07/06 04:35:27;;;;;;;0.00;0.00;;;;;;;;;;5115653;28;20082;-80
2022/07/06 04:37:53;;;;;;;0.00;0.00;;;;;;;;;;5115501;28;20089;-80
2022/07/06 04:40:19;;;;;;;0.00;0.00;;;;;;;;;;5115749;28;20043;-79
2022/07/06 04:42:45;;;;;;;0.00;0.00;;;;;;;;;;5115179;28;20063;-80
2022/07/06 04:45:11;;;;;;;0.00;0.00;;;;;;;;;;5115479;28;20382;-80
2022/07/06 04:47:37;;;;;;;0.00;0.00;;;;;;;;;;5115343;28;20449;-80
2022/07/06 04:50:04;;;;;;;0.00;0.00;;;;;;;;;;5115730;28;20035;-80
2022/07/06 04:52:30;;;;;;;0.00;0.00;;;;;;;;;;5115490;28;20039;-80
2022/07/06 04:54:56;;;;;;;0.00;0.00;;;;;;;;;;5115025;28;20050;-80
2022/07/06 04:57:22;;;;;;;0.00;0.00;;;;;;;;;;5115242;28;20039;-80
2022/07/06 04:59:48;;;;;;;0.00;0.00;;;;;;;;;;5115033;28;20048;-81
2022/07/06 05:02:14;;;;;;;0.00;0.00;;;;;;;;;;5115083;28;20104;-80
2022/07/06 05:04:40;;;;;;;0.00;0.00;;;;;;;;;;5098044;28;20070;-80
2022/07/06 05:07:06;;;;;;;0.00;0.00;;;;;;;;;;5115116;28;20079;-80
2022/07/06 05:09:32;;;;;;;0.00;0.00;;;;;;;;;;5114828;28;20429;-80
2022/07/06 05:11:58;;;;;;;0.00;0.00;;;;;;;;;;5116581;28;20035;-80
2022/07/06 05:14:24;;;;;;;0.00;0.00;;;;;;;;;;5116031;28;20061;-80
2022/07/06 05:16:50;;;;;;;0.00;0.00;;;;;;;;;;5115054;28;20054;-80
2022/07/06 05:19:16;;;;;;;0.00;0.00;;;;;;;;;;5116022;28;20375;-80
2022/07/06 05:21:42;;;;;;;0.00;0.00;;;;;;;;;;5116406;28;20061;-80
2022/07/06 05:24:08;;;;;;;0.00;0.00;;;;;;;;;;5114400;28;20398;-80
2022/07/06 05:26:34;;;;;;;0.00;0.00;;;;;;;;;;5113888;28;20043;-79
2022/07/06 05:29:00;;;;;;;0.00;0.00;;;;;;;;;;5114692;28;20043;-80
2022/07/06 05:31:26;;;;;;;0.00;0.00;;;;;;;;;;5115176;28;20513;-80
2022/07/06 05:33:52;;;;;;;0.00;0.00;;;;;;;;;;5115870;28;20036;-80
2022/07/06 05:36:18;;;;;;;0.00;0.00;;;;;;;;;;5114516;28;20397;-80
2022/07/06 05:38:45;;;;;;;0.00;0.00;;;;;;;;;;5114646;28;20046;-80
2022/07/06 05:41:11;;;;;;;0.00;0.00;;;;;;;;;;5114264;28;20055;-80
2022/07/06 05:43:37;;;;;;;0.00;0.00;;;;;;;;;;5115339;28;20059;-80
2022/07/06 05:46:03;;;;;;;0.00;0.00;;;;;;;;;;5097571;28;20135;-80
2022/07/06 05:51:15;;;;;;;0.00;0.00;;;;;;;;;;5114225;28;20048;-80
2022/07/06 05:53:40;;;;;;;0.00;0.00;;;;;;;;;;5113947;28;20039;-80
2022/07/06 05:56:06;;;;;;;0.00;0.00;;;;;;;;;;5115669;28;20176;-80
2022/07/06 05:58:32;;;;;;;0.00;0.00;;;;;;;;;;5113915;28;20044;-80
2022/07/06 06:00:59;;;;;;;0.00;0.00;;;;;;;;;;5114258;28;20055;-80
2022/07/06 06:03:25;;;;;;;0.00;0.00;;;;;;;;;;5113718;28;20486;-80
2022/07/06 06:05:51;;;;;;;0.00;0.00;;;;;;;;;;5115374;28;20036;-80
2022/07/06 06:08:17;;;;;;;0.00;0.00;;;;;;;;;;5113969;28;20047;-80
2022/07/06 06:10:43;;;;;;;0.00;0.00;;;;;;;;;;5115213;28;20036;-80
2022/07/06 06:13:09;;;;;;;0.00;0.00;;;;;;;;;;5115137;28;20502;-80
2022/07/06 06:15:35;;;;;;;0.00;0.00;;;;;;;;;;5115069;28;20040;-80
2022/07/06 06:18:01;;;;;;;0.00;0.00;;;;;;;;;;5114092;28;20470;-80
2022/07/06 06:20:27;;;;;;;0.00;0.00;;;;;;;;;;5113490;28;20043;-80
2022/07/06 06:22:54;;;;;;;0.00;0.00;;;;;;;;;;5101547;28;20040;-80
2022/07/06 06:25:21;;;;;;;0.00;0.00;;;;;;;;;;5075529;28;20032;-81
2022/07/06 06:27:47;;;;;;;0.00;0.00;;;;;;;;;;5092638;28;20040;-80
2022/07/06 06:30:14;;;;;;;0.00;0.00;;;;;;;;;;5092459;28;20041;-80
2022/07/06 06:32:40;;;;;;;0.00;0.00;;;;;;;;;;5075918;28;20078;-80
2022/07/06 06:35:06;;;;;;;0.00;0.00;;;;;;;;;;5075857;28;20432;-80
2022/07/06 06:37:34;;;;;;;0.00;0.00;;;;;;;;;;5092492;28;20043;-80
2022/07/06 06:40:00;;;;;;;0.00;0.00;;;;;;;;;;5093796;28;20044;-80
2022/07/06 06:42:26;;;;;;;0.00;0.00;;;;;;;;;;5092171;28;20055;-79
2022/07/06 06:44:52;;;;;;;0.00;0.00;;;;;;;;;;5092080;28;20048;-82
2022/07/06 06:47:19;;;;;;;0.00;0.00;;;;;;;;;;5092388;28;20036;-80
2022/07/06 06:49:45;;;;;;;0.00;0.00;;;;;;;;;;5094129;28;20123;-83
2022/07/06 06:52:11;;;;;;;0.00;0.00;;;;;;;;;;5092823;28;20040;-83
2022/07/06 06:54:37;;;;;;;0.00;0.00;;;;;;;;;;5075456;28;20039;-79
2022/07/06 06:57:03;;;;;;;0.00;0.00;;;;;;;;;;5092773;28;20119;-79
2022/07/06 06:59:29;;;;;;;0.00;0.00;;;;;;;;;;5092377;28;20059;-81
2022/07/06 07:01:55;;;;;;;0.00;0.00;;;;;;;;;;5092733;28;20136;-82
2022/07/06 07:04:21;;;;;;;0.00;0.00;;;;;;;;;;5092066;28;20105;-80
2022/07/06 07:06:47;;;;;;;0.00;0.00;;;;;;;;;;5092430;28;20060;-80
2022/07/06 07:09:13;;;;;;;0.00;0.00;;;;;;;;;;5093509;28;20039;-81
2022/07/06 07:11:39;;;;;;;0.00;0.00;;;;;;;;;;5078917;28;20085;-81
2022/07/06 07:14:05;;;;;;;0.00;0.00;;;;;;;;;;5112472;28;20048;-80
2022/07/06 07:16:31;;;;;;;0.00;0.00;;;;;;;;;;5112796;28;20077;-80
2022/07/06 07:18:57;;;;;;;0.00;0.00;;;;;;;;;;5112851;28;20040;-80
2022/07/06 07:21:23;;;;;;;0.00;0.00;;;;;;;;;;5112272;28;20516;-81
2022/07/06 07:23:50;;;;;;;0.00;0.00;;;;;;;;;;5112495;28;20126;-80
2022/07/06 07:26:16;;;;;;;0.00;0.00;;;;;;;;;;5112372;28;20124;-80
2022/07/06 07:28:42;;;;;;;0.00;0.00;;;;;;;;;;5112493;28;20398;-82
2022/07/06 07:31:08;;;;;;;0.00;0.00;;;;;;;;;;5112414;28;20047;-82
2022/07/06 07:33:34;;;;;;;0.00;0.00;;;;;;;;;;5112222;28;20079;-82
2022/07/06 07:36:00;;;;;;;0.00;0.00;;;;;;;;;;5112062;28;20119;-82
2022/07/06 07:38:26;;;;;;;0.00;0.00;;;;;;;;;;5112545;28;20043;-82
2022/07/06 07:40:55;;;;;;;0.00;0.00;;;;;;;;;;5113168;28;20495;-83
2022/07/06 07:43:21;;;;;;;0.00;0.00;;;;;;;;;;5112149;28;20054;-83
2022/07/06 07:45:49;;;;;;;0.00;0.00;;;;;;;;;;5111861;28;20043;-82
2022/07/06 07:48:15;;;;;;;0.00;0.00;;;;;;;;;;5112450;28;20383;-83
2022/07/06 07:50:41;;;;;;;0.00;0.00;;;;;;;;;;5094676;28;20039;-83
2022/07/06 07:53:07;;;;;;;0.00;0.00;;;;;;;;;;5112429;28;20433;-82
2022/07/06 07:55:33;;;;;;;0.00;0.00;;;;;;;;;;5111766;28;20045;-83
2022/07/06 07:57:59;;;;;;;0.00;0.00;;;;;;;;;;5112055;28;20075;-82
2022/07/06 08:00:26;;;;;;;0.00;0.00;;;;;;;;;;5111938;28;20047;-83
2022/07/06 08:02:54;;;;;;;0.00;0.00;;;;;;;;;;5112061;28;20513;-82
2022/07/06 08:05:19;;;;;;;0.00;0.00;;;;;;;;;;5111820;28;20043;-83
2022/07/06 08:07:45;;;;;;;0.00;0.00;;;;;;;;;;5112079;28;20035;-85
2022/07/06 08:10:11;;;;;;;0.00;0.00;;;;;;;;;;5113248;28;20035;-83
2022/07/06 08:12:37;;;;;;;0.00;0.00;;;;;;;;;;5112244;28;20101;-81
2022/07/06 08:15:04;;;;;;;0.00;0.00;;;;;;;;;;5111697;28;20039;-82
2022/07/06 08:17:30;;;;;;;0.00;0.00;;;;;;;;;;5111929;28;20044;-83
2022/07/06 08:19:56;;;;;;;0.00;0.00;;;;;;;;;;5111725;28;20486;-84
2022/07/06 08:22:23;;;;;;;0.00;0.00;;;;;;;;;;5112160;28;20043;-83
2022/07/06 08:24:49;;;;;;;0.00;0.00;;;;;;;;;;5111632;28;20046;-84
2022/07/06 08:27:15;;;;;;;0.00;0.00;;;;;;;;;;5112050;28;20071;-82
2022/07/06 08:29:41;;;;;;;0.00;0.00;;;;;;;;;;5094964;28;20040;-85
2022/07/06 08:32:07;;;;;;;0.00;0.00;;;;;;;;;;5111544;28;20497;-82
2022/07/06 08:34:33;;;;;;;0.00;0.00;;;;;;;;;;5094569;28;20032;-83
2022/07/06 08:36:59;;;;;;;0.00;0.00;;;;;;;;;;5111737;28;20039;-82
2022/07/06 08:39:25;;;;;;;0.00;0.00;;;;;;;;;;5111744;28;20288;-83
2022/07/06 08:41:51;;;;;;;0.00;0.00;;;;;;;;;;5111321;28;20349;-83
2022/07/06 08:44:18;;;;;;;0.00;0.00;;;;;;;;;;5111365;28;20228;-84
2022/07/06 08:46:44;;;;;;;0.00;0.00;;;;;;;;;;5111603;28;20126;-84
2022/07/06 08:49:17;;;;;;;0.00;0.00;;;;;;;;;;5111610;28;20112;-84
2022/07/06 08:51:43;;;;;;;0.00;0.00;;;;;;;;;;5111241;28;20122;-81
2022/07/06 08:54:09;;;;;;;0.00;0.00;;;;;;;;;;5111729;28;20039;-83
2022/07/06 08:56:35;;;;;;;0.00;0.00;;;;;;;;;;5111601;28;20500;-86
2022/07/06 08:59:01;;;;;;;0.00;0.00;;;;;;;;;;5094987;28;20379;-83
2022/07/06 09:01:27;;;;;;;0.00;0.00;;;;;;;;;;5094681;28;20077;-81
2022/07/06 09:03:55;;;;;;;0.00;0.00;;;;;;;;;;5115310;28;20126;-82
2022/07/06 09:06:24;;;;;;;0.00;0.00;;;;;;;;;;5116295;28;20368;-83
2022/07/06 09:08:51;;;;;;;0.00;0.00;;;;;;;;;;5115122;28;20036;-83
2022/07/06 09:11:17;;;;;;;0.00;0.00;;;;;;;;;;5115056;28;20035;-83
2022/07/06 09:13:43;;;;;;;0.00;0.00;;;;;;;;;;5114959;28;20505;-83
2022/07/06 09:16:13;;;;;;;0.00;0.00;;;;;;;;;;5114869;28;20048;-83
2022/07/06 09:18:42;;;;;;;0.00;0.00;;;;;;;;;;5116738;28;20368;-83
2022/07/06 09:21:08;;;;;;;0.00;0.00;;;;;;;;;;5114673;28;20048;-83
2022/07/06 09:23:34;;;;;;;0.00;0.00;;;;;;;;;;5113482;28;20032;-82
2022/07/06 09:26:03;;;;;;;0.00;0.00;;;;;;;;;;5114568;28;20039;-82
2022/07/06 09:28:42;;;;;;;0.00;0.00;;;;;;;;;;5114929;28;20409;-83
2022/07/06 09:31:08;;;;;;;0.00;0.00;;;;;;;;;;5097751;28;20045;-82
2022/07/06 09:33:35;;;;;;;0.00;0.00;;;;;;;;;;5114798;28;20044;-82
2022/07/06 09:36:02;;;;;;;0.00;0.00;;;;;;;;;;5114421;28;20044;-82
2022/07/06 09:38:28;;;;;;;0.00;0.00;;;;;;;;;;5097486;28;20479;-83
2022/07/06 09:40:54;;;;;;;0.00;0.00;;;;;;;;;;5114103;28;20055;-83
2022/07/06 09:43:24;;;;;;;0.00;0.00;;;;;;;;;;5114481;28;20448;-84
2022/07/06 09:45:51;;;;;;;0.00;0.00;;;;;;;;;;5114216;28;20083;-84
2022/07/06 09:48:23;;;;;;;0.00;0.00;;;;;;;;;;5114621;28;20157;-84
2022/07/06 09:50:53;;;;;;;0.00;0.00;;;;;;;;;;5114306;28;20032;-84
2022/07/06 09:53:19;;;;;;;0.00;0.00;;;;;;;;;;5115526;28;20118;-84
2022/07/06 09:55:50;;;;;;;0.00;0.00;;;;;;;;;;5115222;28;20065;-83
2022/07/06 09:58:17;;;;;;;0.00;0.00;;;;;;;;;;5114271;28;20439;-83
2022/07/06 10:00:44;;;;;;;0.00;0.00;;;;;;;;;;5114125;28;20035;-82
2022/07/06 10:03:10;;;;;;;0.00;0.00;;;;;;;;;;5114144;28;20043;-84
2022/07/06 10:05:38;;;;;;;0.00;0.00;;;;;;;;;;5113902;28;20066;-83
2022/07/06 10:08:05;;;;;;;0.00;0.00;;;;;;;;;;5113734;28;20119;-84
2022/07/06 10:10:32;;;;;;;0.00;0.00;;;;;;;;;;5114332;28;20043;-84
2022/07/06 10:12:59;;;;;;;0.00;0.00;;;;;;;;;;5114870;27;20086;-83
2022/07/06 10:15:31;;;;;;;0.00;0.00;;;;;;;;;;5113813;28;20541;-83
2022/07/06 10:17:58;;;;;;;0.00;0.00;;;;;;;;;;5113813;28;20036;-83
2022/07/06 10:20:24;;;;;;;0.00;0.00;;;;;;;;;;5096730;28;20536;-84
2022/07/06 10:22:50;;;;;;;0.00;0.00;;;;;;;;;;5113444;28;20047;-83
2022/07/06 10:25:17;;;;;;;0.00;0.00;;;;;;;;;;5113579;28;20039;-84
2022/07/06 10:27:45;;;;;;;0.00;0.00;;;;;;;;;;5090074;28;20032;-84
2022/07/06 10:30:11;;;;;;;0.00;0.00;;;;;;;;;;5095147;28;20046;-83
2022/07/06 10:32:39;;;;;;;0.00;0.00;;;;;;;;;;5113299;28;20055;-85
2022/07/06 10:35:06;;;;;;;0.00;0.00;;;;;;;;;;5096344;28;20043;-84
2022/07/06 10:37:33;;;;;;;0.00;0.00;;;;;;;;;;5113153;28;20486;-85
2022/07/06 10:42:45;;;;;;;0.00;0.00;;;;;;;;;;5112907;28;20055;-84
2022/07/06 10:45:13;;;;;;;0.00;0.00;;;;;;;;;;5113209;28;20049;-83
2022/07/06 10:47:40;;;;;;;0.00;0.00;;;;;;;;;;5112951;28;20032;-84
2022/07/06 10:50:07;;;;;;;0.00;0.00;;;;;;;;;;5113237;28;20417;-84
2022/07/06 10:53:08;;;;;;;0.00;0.00;;;;;;;;;;5113270;28;20043;-83
2022/07/06 10:55:38;;;;;;;0.00;0.00;;;;;;;;;;5091763;28;20395;-84
2022/07/06 10:58:04;;;;;;;0.00;0.00;;;;;;;;;;5105559;28;20056;-84
2022/07/06 11:00:51;;;;;;;0.00;0.00;;;;;;;;;;5112918;28;20054;-83
2022/07/06 11:03:32;;;;;;;0.00;0.00;;;;;;;;;;5112767;28;20390;-84
2022/07/06 11:05:59;;;;;;;0.00;0.00;;;;;;;;;;5112764;28;20065;-83
2022/07/06 11:08:44;;;;;;;0.00;0.00;;;;;;;;;;5112673;28;20410;-83
2022/07/06 11:11:17;;;;;;;0.00;0.00;;;;;;;;;;5112795;28;20419;-83
2022/07/06 11:13:44;;;;;;;0.00;0.00;;;;;;;;;;5112362;28;20065;-83
2022/07/06 11:16:10;;;;;;;0.00;0.00;;;;;;;;;;5095603;28;20478;-83
2022/07/06 11:18:40;;;;;;;0.00;0.00;;;;;;;;;;5112350;28;20122;-83
2022/07/06 11:21:18;;;;;;;0.00;0.00;;;;;;;;;;5112539;28;20039;-83
2022/07/06 11:23:45;;;;;;;0.00;0.00;;;;;;;;;;5095178;28;20097;-83
2022/07/06 11:26:12;;;;;;;0.00;0.00;;;;;;;;;;5111986;28;20040;-83
2022/07/06 11:28:38;;;;;;;0.00;0.00;;;;;;;;;;5112185;28;20052;-83
2022/07/06 11:31:04;;;;;;;0.00;0.00;;;;;;;;;;5112646;28;20039;-83
2022/07/06 11:33:30;;;;;;;0.00;0.00;;;;;;;;;;5113592;28;20442;-83
2022/07/06 11:36:32;;;;;;;0.00;0.00;;;;;;;;;;5112617;28;20047;-83
2022/07/06 11:38:58;;;;;;;0.00;0.00;;;;;;;;;;5090900;28;20134;-86
2022/07/06 11:41:24;;;;;;;0.00;0.00;;;;;;;;;;5101866;28;20051;-83
2022/07/06 11:43:52;;;;;;;0.00;0.00;;;;;;;;;;5113643;28;20052;-83
2022/07/06 11:46:21;;;;;;;0.00;0.00;;;;;;;;;;5112229;28;20047;-83
2022/07/06 11:48:51;;;;;;;0.00;0.00;;;;;;;;;;5113559;28;20040;-83
2022/07/06 11:51:17;;;;;;;0.00;0.00;;;;;;;;;;5112525;28;20389;-82
2022/07/06 11:53:47;;;;;;;0.00;0.00;;;;;;;;;;5111849;28;20067;-82
2022/07/06 11:56:18;;;;;;;0.00;0.00;;;;;;;;;;5112190;28;20424;-83
2022/07/06 11:58:46;;;;;;;0.00;0.00;;;;;;;;;;5111925;28;20050;-80
2022/07/06 12:01:14;;;;;;;0.00;0.00;;;;;;;;;;5112294;28;20047;-81
2022/07/06 12:03:40;;;;;;;0.00;0.00;;;;;;;;;;5111631;28;20051;-82
2022/07/06 12:06:07;;;;;;;0.00;0.00;;;;;;;;;;5112055;28;20051;-82
2022/07/06 12:08:41;;;;;;;0.00;0.00;;;;;;;;;;5111786;28;20118;-83
2022/07/06 12:11:07;;;;;;;0.00;0.00;;;;;;;;;;5112258;28;20036;-82
2022/07/06 12:13:38;;;;;;;0.00;0.00;;;;;;;;;;5111772;28;20048;-82
2022/07/06 12:16:11;;;;;;;0.00;0.00;;;;;;;;;;5095242;28;20126;-82
2022/07/06 12:18:38;;;;;;;0.00;0.00;;;;;;;;;;5111777;28;20052;-82
2022/07/06 12:21:04;;;;;;;0.00;0.00;;;;;;;;;;5113188;28;20398;-82
2022/07/06 12:23:40;;;;;;;0.00;0.00;;;;;;;;;;5111617;28;20036;-83
2022/07/06 12:26:07;;;;;;;0.00;0.00;;;;;;;;;;5111814;28;20051;-83
2022/07/06 12:28:33;;;;;;;0.00;0.00;;;;;;;;;;5111635;28;20039;-83
2022/07/06 12:30:59;;;;;;;0.00;0.00;;;;;;;;;;5111760;28;20039;-83
2022/07/06 12:33:27;;;;;;;0.00;0.00;;;;;;;;;;5111466;28;20044;-82
2022/07/06 12:35:53;;;;;;;0.00;0.00;;;;;;;;;;5113117;28;20043;-82
2022/07/06 12:38:42;;;;;;;0.00;0.00;;;;;;;;;;5115770;28;20057;-82
2022/07/06 12:41:08;;;;;;;0.00;0.00;;;;;;;;;;5115362;28;20056;-83
2022/07/06 12:43:41;;;;;;;0.00;0.00;;;;;;;;;;5115236;28;20108;-83
2022/07/06 12:46:26;;;;;;;0.00;0.00;;;;;;;;;;5115577;28;20035;-83
2022/07/06 12:48:52;;;;;;;0.00;0.00;;;;;;;;;;5115398;28;20036;-83
2022/07/06 12:51:18;;;;;;;0.00;0.00;;;;;;;;;;5116977;28;20035;-82
2022/07/06 12:53:44;;;;;;;0.00;0.00;;;;;;;;;;5115198;28;20440;-82
2022/07/06 12:56:11;;;;;;;0.00;0.00;;;;;;;;;;5098376;28;20044;-82
2022/07/06 12:58:37;;;;;;;0.00;0.00;;;;;;;;;;5115425;28;20070;-82
2022/07/06 13:01:03;;;;;;;0.00;0.00;;;;;;;;;;5115610;28;20513;-83
2022/07/06 13:03:38;;;;;;;0.00;0.00;;;;;;;;;;5116149;28;20051;-82
2022/07/06 13:06:05;;;;;;;0.00;0.00;;;;;;;;;;5115222;28;20050;-83
2022/07/06 13:08:31;;;;;;;0.00;0.00;;;;;;;;;;5115340;28;20057;-83
2022/07/06 13:10:57;;;;;;;0.00;0.00;;;;;;;;;;5116489;28;20478;-82
2022/07/06 13:13:23;;;;;;;0.00;0.00;;;;;;;;;;5114828;28;20036;-83
2022/07/06 13:15:50;;;;;;;0.00;0.00;;;;;;;;;;5116357;28;20123;-83
2022/07/06 13:18:18;;;;;;;0.00;0.00;;;;;;;;;;5097985;28;20108;-83
2022/07/06 13:20:44;;;;;;;0.00;0.00;;;;;;;;;;5097936;28;20044;-82
2022/07/06 13:23:10;;;;;;;0.00;0.00;;;;;;;;;;5114812;28;20386;-83
2022/07/06 13:25:36;;;;;;;0.00;0.00;;;;;;;;;;5114670;28;20050;-82
2022/07/06 13:28:02;;;;;;;0.00;0.00;;;;;;;;;;5115782;28;20043;-82
2022/07/06 13:30:28;;;;;;;0.00;0.00;;;;;;;;;;5114838;28;20093;-82
2022/07/06 13:32:56;;;;;;;0.00;0.00;;;;;;;;;;5114422;28;20036;-82
2022/07/06 13:35:22;;;;;;;0.00;0.00;;;;;;;;;;5115845;28;20043;-82
2022/07/06 13:37:50;;;;;;;0.00;0.00;;;;;;;;;;5114346;28;20044;-83
2022/07/06 13:40:16;;;;;;;0.00;0.00;;;;;;;;;;5116063;28;20040;-82
2022/07/06 13:42:42;;;;;;;0.00;0.00;;;;;;;;;;5114336;28;20142;-81
2022/07/06 13:45:08;;;;;;;0.00;0.00;;;;;;;;;;5114579;28;20067;-81
2022/07/06 13:47:34;;;;;;;0.00;0.00;;;;;;;;;;5113845;28;20043;-81
2022/07/06 13:50:00;;;;;;;0.00;0.00;;;;;;;;;;5114244;28;20040;-82
2022/07/06 13:52:26;;;;;;;0.00;0.00;;;;;;;;;;5114400;28;20074;-81
2022/07/06 13:54:52;;;;;;;0.00;0.00;;;;;;;;;;5114069;28;20071;-83
2022/07/06 13:57:18;;;;;;;0.25;0.03;;;;;;;;;;5114473;28;20050;-82
2022/07/06 13:59:46;;;;;;;0.00;0.00;;;;;;;;;;5114019;28;20525;-82
2022/07/06 14:02:12;;;;;;;0.00;0.00;;;;;;;;;;5114259;28;20448;-81
2022/07/06 14:04:38;;;;;;;0.00;0.00;;;;;;;;;;5113749;28;20127;-81
2022/07/06 14:07:05;;;;;;;0.00;0.00;;;;;;;;;;5114012;28;20047;-82
2022/07/06 14:09:31;;;;;;;0.00;0.00;;;;;;;;;;5113673;28;20040;-81
2022/07/06 14:11:57;;;;;;;0.00;0.00;;;;;;;;;;5113886;28;20039;-83
2022/07/06 14:14:23;;;;;;;0.00;0.00;;;;;;;;;;5114784;28;20108;-83
2022/07/06 14:16:50;;;;;;;0.00;0.00;;;;;;;;;;5113932;28;20379;-83
2022/07/06 14:19:17;;;;;;;0.00;0.00;;;;;;;;;;5113716;28;20051;-83
2022/07/06 14:21:44;;;;;;;0.00;0.00;;;;;;;;;;5113906;28;20048;-84
2022/07/06 14:24:10;;;;;;;0.00;0.00;;;;;;;;;;5113214;28;20047;-84
2022/07/06 14:26:36;;;;;;;0.00;0.00;;;;;;;;;;5113589;28;20034;-83
2022/07/06 14:29:02;;;;;;;0.00;0.00;;;;;;;;;;5113302;28;20048;-83
2022/07/06 14:31:28;;;;;;;0.00;0.00;;;;;;;;;;5096565;28;20046;-83
2022/07/06 14:33:54;;;;;;;0.00;0.00;;;;;;;;;;5113214;28;20345;-84
2022/07/06 14:36:20;;;;;;;0.00;0.00;;;;;;;;;;5113659;28;20123;-82
2022/07/06 14:38:46;;;;;;;0.00;0.00;;;;;;;;;;5113208;28;20558;-82
2022/07/06 14:41:12;;;;;;;0.00;0.00;;;;;;;;;;5113554;28;20086;-83
2022/07/06 14:43:38;;;;;;;0.00;0.00;;;;;;;;;;5112959;28;20078;-84
2022/07/06 14:46:04;;;;;;;0.00;0.00;;;;;;;;;;5113508;28;20028;-83
2022/07/06 14:48:30;;;;;;;0.00;0.00;;;;;;;;;;5113289;28;20531;-84